sensor_id;sensor_type;location;lat;lon;timestamp;temperature;humidity
25320;DHT22;13256;49.012;8.610;2023-09-07T00:01:45;16.80;99.90
25320;DHT22;13256;49.012;8.610;2023-09-07T00:04:12;16.80;99.90
25320;DHT22;13256;49.012;8.610;2023-09-07T00:06:46;16.80;99.90
25320;DHT22;13256;49.012;8.610;2023-09-07T00:09:16;16.80;99.90
25320;DHT22;13256;49.012;8.610;2023-09-07T00:11:46;16.80;99.90
25320;DHT22;13256;49.012;8.610;2023-09-07T00:14:42;16.80;99.90
25320;DHT22;13256;49.012;8.610;2023-09-07T00:17:14;16.80;99.90
25320;DHT22;13256;49.012;8.610;2023-09-07T00:19:43;16.80;99.90
25320;DHT22;13256;49.012;8.610;2023-09-07T00:22:14;16.80;99.90
25320;DHT22;13256;49.012;8.610;2023-09-07T00:24:43;16.80;99.90
25320;DHT22;13256;49.012;8.610;2023-09-07T00:27:10;16.80;99.90
25320;DHT22;13256;49.012;8.610;2023-09-07T00:29:38;16.70;99.90
25320;DHT22;13256;49.012;8.610;2023-09-07T00:32:08;16.70;99.90
25320;DHT22;13256;49.012;8.610;2023-09-07T00:34:36;16.70;99.90
25320;DHT22;13256;49.012;8.610;2023-09-07T00:37:06;16.60;99.90
25320;DHT22;13256;49.012;8.610;2023-09-07T00:39:33;16.60;99.90
25320;DHT22;13256;49.012;8.610;2023-09-07T00:42:02;16.50;99.90
25320;DHT22;13256;49.012;8.610;2023-09-07T00:44:30;16.40;99.90
25320;DHT22;13256;49.012;8.610;2023-09-07T00:47:03;16.30;99.90
25320;DHT22;13256;49.012;8.610;2023-09-07T00:49:34;16.10;99.90
25320;DHT22;13256;49.012;8.610;2023-09-07T00:52:36;16.00;99.90
25320;DHT22;13256;49.012;8.610;2023-09-07T00:55:09;15.90;99.90
25320;DHT22;13256;49.012;8.610;2023-09-07T00:58:04;15.80;99.90
25320;DHT22;13256;49.012;8.610;2023-09-07T01:00:33;15.70;99.90
25320;DHT22;13256;49.012;8.610;2023-09-07T01:03:04;15.70;99.90
25320;DHT22;13256;49.012;8.610;2023-09-07T01:05:44;15.70;99.90
25320;DHT22;13256;49.012;8.610;2023-09-07T01:08:36;15.70;99.90
25320;DHT22;13256;49.012;8.610;2023-09-07T01:11:37;15.60;99.90
25320;DHT22;13256;49.012;8.610;2023-09-07T01:14:06;15.50;99.90
25320;DHT22;13256;49.012;8.610;2023-09-07T01:16:38;15.50;99.90
25320;DHT22;13256;49.012;8.610;2023-09-07T01:19:07;15.40;99.90
25320;DHT22;13256;49.012;8.610;2023-09-07T01:21:36;15.40;99.90
25320;DHT22;13256;49.012;8.610;2023-09-07T01:24:08;15.40;99.90
25320;DHT22;13256;49.012;8.610;2023-09-07T01:26:38;15.40;99.90
25320;DHT22;13256;49.012;8.610;2023-09-07T01:29:07;15.40;99.90
25320;DHT22;13256;49.012;8.610;2023-09-07T01:31:39;15.40;99.90
25320;DHT22;13256;49.012;8.610;2023-09-07T01:34:10;15.40;99.90
25320;DHT22;13256;49.012;8.610;2023-09-07T01:37:07;15.30;99.90
25320;DHT22;13256;49.012;8.610;2023-09-07T01:39:36;15.30;99.90
25320;DHT22;13256;49.012;8.610;2023-09-07T01:42:06;15.20;99.90
25320;DHT22;13256;49.012;8.610;2023-09-07T01:44:34;15.20;99.90
25320;DHT22;13256;49.012;8.610;2023-09-07T01:47:02;15.10;99.90
25320;DHT22;13256;49.012;8.610;2023-09-07T01:49:31;15.10;99.90
25320;DHT22;13256;49.012;8.610;2023-09-07T01:52:02;15.00;99.90
25320;DHT22;13256;49.012;8.610;2023-09-07T01:54:29;15.00;99.90
25320;DHT22;13256;49.012;8.610;2023-09-07T01:56:57;15.00;99.90
25320;DHT22;13256;49.012;8.610;2023-09-07T01:59:24;15.00;99.90
25320;DHT22;13256;49.012;8.610;2023-09-07T02:01:51;14.90;99.90
25320;DHT22;13256;49.012;8.610;2023-09-07T02:04:21;14.90;99.90
25320;DHT22;13256;49.012;8.610;2023-09-07T02:06:47;14.90;99.90
25320;DHT22;13256;49.012;8.610;2023-09-07T02:09:14;14.80;99.90
25320;DHT22;13256;49.012;8.610;2023-09-07T02:11:41;14.80;99.90
25320;DHT22;13256;49.012;8.610;2023-09-07T02:14:08;14.80;99.90
25320;DHT22;13256;49.012;8.610;2023-09-07T02:16:39;14.80;99.90
25320;DHT22;13256;49.012;8.610;2023-09-07T02:19:08;14.70;99.90
25320;DHT22;13256;49.012;8.610;2023-09-07T02:21:35;14.70;99.90
25320;DHT22;13256;49.012;8.610;2023-09-07T02:24:04;14.60;99.90
25320;DHT22;13256;49.012;8.610;2023-09-07T02:26:34;14.60;99.90
25320;DHT22;13256;49.012;8.610;2023-09-07T02:29:03;14.60;99.90
25320;DHT22;13256;49.012;8.610;2023-09-07T02:31:35;14.50;99.90
25320;DHT22;13256;49.012;8.610;2023-09-07T02:34:03;14.50;99.90
25320;DHT22;13256;49.012;8.610;2023-09-07T02:36:58;14.50;99.90
25320;DHT22;13256;49.012;8.610;2023-09-07T02:39:25;14.50;99.90
25320;DHT22;13256;49.012;8.610;2023-09-07T02:41:58;14.50;99.90
25320;DHT22;13256;49.012;8.610;2023-09-07T02:44:26;14.50;99.90
25320;DHT22;13256;49.012;8.610;2023-09-07T02:46:55;14.50;99.90
25320;DHT22;13256;49.012;8.610;2023-09-07T02:49:24;14.50;99.90
25320;DHT22;13256;49.012;8.610;2023-09-07T02:51:51;14.40;99.90
25320;DHT22;13256;49.012;8.610;2023-09-07T02:54:23;14.40;99.90
25320;DHT22;13256;49.012;8.610;2023-09-07T02:56:50;14.40;99.90
25320;DHT22;13256;49.012;8.610;2023-09-07T02:59:18;14.30;99.90
25320;DHT22;13256;49.012;8.610;2023-09-07T03:01:47;14.30;99.90
25320;DHT22;13256;49.012;8.610;2023-09-07T03:04:16;14.30;99.90
25320;DHT22;13256;49.012;8.610;2023-09-07T03:06:45;14.20;99.90
25320;DHT22;13256;49.012;8.610;2023-09-07T03:09:14;14.30;99.90
25320;DHT22;13256;49.012;8.610;2023-09-07T03:11:40;14.30;99.90
25320;DHT22;13256;49.012;8.610;2023-09-07T03:14:11;14.20;99.90
25320;DHT22;13256;49.012;8.610;2023-09-07T03:16:38;14.20;99.90
25320;DHT22;13256;49.012;8.610;2023-09-07T03:19:05;14.20;99.90
25320;DHT22;13256;49.012;8.610;2023-09-07T03:21:33;14.20;99.90
25320;DHT22;13256;49.012;8.610;2023-09-07T03:24:04;14.20;99.90
25320;DHT22;13256;49.012;8.610;2023-09-07T03:26:36;14.20;99.90
25320;DHT22;13256;49.012;8.610;2023-09-07T03:29:07;14.20;99.90
25320;DHT22;13256;49.012;8.610;2023-09-07T03:31:33;14.30;99.90
25320;DHT22;13256;49.012;8.610;2023-09-07T03:34:30;14.30;99.90
25320;DHT22;13256;49.012;8.610;2023-09-07T03:36:57;14.30;99.90
25320;DHT22;13256;49.012;8.610;2023-09-07T03:39:26;14.40;99.90
25320;DHT22;13256;49.012;8.610;2023-09-07T03:41:52;14.40;99.90
25320;DHT22;13256;49.012;8.610;2023-09-07T03:44:29;14.40;99.90
25320;DHT22;13256;49.012;8.610;2023-09-07T03:46:56;14.40;99.90
25320;DHT22;13256;49.012;8.610;2023-09-07T03:49:23;14.40;99.90
25320;DHT22;13256;49.012;8.610;2023-09-07T03:51:53;14.30;99.90
25320;DHT22;13256;49.012;8.610;2023-09-07T03:54:25;14.30;99.90
25320;DHT22;13256;49.012;8.610;2023-09-07T03:56:52;14.20;99.90
25320;DHT22;13256;49.012;8.610;2023-09-07T03:59:20;14.20;99.90
25320;DHT22;13256;49.012;8.610;2023-09-07T04:01:46;14.20;99.90
25320;DHT22;13256;49.012;8.610;2023-09-07T04:04:16;14.20;99.90
25320;DHT22;13256;49.012;8.610;2023-09-07T04:06:48;14.20;99.90
25320;DHT22;13256;49.012;8.610;2023-09-07T04:09:16;14.20;99.90
25320;DHT22;13256;49.012;8.610;2023-09-07T04:11:42;14.20;99.90
25320;DHT22;13256;49.012;8.610;2023-09-07T04:14:13;14.20;99.90
25320;DHT22;13256;49.012;8.610;2023-09-07T04:16:40;14.10;99.90
25320;DHT22;13256;49.012;8.610;2023-09-07T04:19:10;14.10;99.90
25320;DHT22;13256;49.012;8.610;2023-09-07T04:21:38;14.10;99.90
25320;DHT22;13256;49.012;8.610;2023-09-07T04:24:10;14.10;99.90
25320;DHT22;13256;49.012;8.610;2023-09-07T04:35:48;14.00;99.90
25320;DHT22;13256;49.012;8.610;2023-09-07T05:12:18;14.00;99.90
25320;DHT22;13256;49.012;8.610;2023-09-07T05:15:10;14.00;99.90
25320;DHT22;13256;49.012;8.610;2023-09-07T05:18:28;14.00;99.90
25320;DHT22;13256;49.012;8.610;2023-09-07T05:21:33;14.10;99.90
25320;DHT22;13256;49.012;8.610;2023-09-07T05:24:09;14.10;99.90
25320;DHT22;13256;49.012;8.610;2023-09-07T05:26:36;14.20;99.90
25320;DHT22;13256;49.012;8.610;2023-09-07T05:29:13;14.20;99.90
25320;DHT22;13256;49.012;8.610;2023-09-07T05:35:34;14.30;99.90
25320;DHT22;13256;49.012;8.610;2023-09-07T05:38:38;14.40;99.90
25320;DHT22;13256;49.012;8.610;2023-09-07T05:41:14;14.40;99.90
25320;DHT22;13256;49.012;8.610;2023-09-07T05:43:50;14.40;99.90
25320;DHT22;13256;49.012;8.610;2023-09-07T05:46:21;14.50;99.90
25320;DHT22;13256;49.012;8.610;2023-09-07T05:48:50;14.50;99.90
25320;DHT22;13256;49.012;8.610;2023-09-07T05:55:04;14.60;99.90
25320;DHT22;13256;49.012;8.610;2023-09-07T05:57:43;14.70;99.90
25320;DHT22;13256;49.012;8.610;2023-09-07T06:00:45;14.70;99.90
25320;DHT22;13256;49.012;8.610;2023-09-07T06:03:33;14.80;99.90
25320;DHT22;13256;49.012;8.610;2023-09-07T06:06:25;14.90;99.90
25320;DHT22;13256;49.012;8.610;2023-09-07T06:09:00;14.90;99.90
25320;DHT22;13256;49.012;8.610;2023-09-07T06:11:55;15.00;99.90
25320;DHT22;13256;49.012;8.610;2023-09-07T06:15:25;15.10;99.90
25320;DHT22;13256;49.012;8.610;2023-09-07T06:18:10;15.20;99.90
25320;DHT22;13256;49.012;8.610;2023-09-07T06:20:40;15.30;99.90
25320;DHT22;13256;49.012;8.610;2023-09-07T06:23:42;15.40;99.90
25320;DHT22;13256;49.012;8.610;2023-09-07T06:27:10;15.50;99.90
25320;DHT22;13256;49.012;8.610;2023-09-07T06:29:42;15.60;99.90
25320;DHT22;13256;49.012;8.610;2023-09-07T06:32:34;15.70;99.90
25320;DHT22;13256;49.012;8.610;2023-09-07T06:35:15;15.80;99.90
25320;DHT22;13256;49.012;8.610;2023-09-07T06:38:06;15.90;99.90
25320;DHT22;13256;49.012;8.610;2023-09-07T06:41:35;16.10;99.90
25320;DHT22;13256;49.012;8.610;2023-09-07T06:47:16;16.50;99.90
25320;DHT22;13256;49.012;8.610;2023-09-07T07:05:02;17.80;99.90
25320;DHT22;13256;49.012;8.610;2023-09-07T07:07:33;17.90;99.90
25320;DHT22;13256;49.012;8.610;2023-09-07T07:10:54;18.10;99.90
25320;DHT22;13256;49.012;8.610;2023-09-07T07:14:05;18.20;99.90
25320;DHT22;13256;49.012;8.610;2023-09-07T07:17:22;18.40;99.90
25320;DHT22;13256;49.012;8.610;2023-09-07T07:19:55;18.50;99.90
25320;DHT22;13256;49.012;8.610;2023-09-07T07:22:55;18.60;99.90
25320;DHT22;13256;49.012;8.610;2023-09-07T07:46:41;20.10;99.90
25320;DHT22;13256;49.012;8.610;2023-09-07T07:49:24;20.20;99.90
25320;DHT22;13256;49.012;8.610;2023-09-07T07:52:29;20.40;99.90
25320;DHT22;13256;49.012;8.610;2023-09-07T07:55:08;20.50;99.90
25320;DHT22;13256;49.012;8.610;2023-09-07T07:57:49;20.70;99.90
25320;DHT22;13256;49.012;8.610;2023-09-07T08:03:41;20.90;99.90
25320;DHT22;13256;49.012;8.610;2023-09-07T08:06:13;21.10;99.90
25320;DHT22;13256;49.012;8.610;2023-09-07T08:08:48;21.20;99.90
25320;DHT22;13256;49.012;8.610;2023-09-07T08:11:50;21.40;99.90
25320;DHT22;13256;49.012;8.610;2023-09-07T08:15:01;21.50;99.90
25320;DHT22;13256;49.012;8.610;2023-09-07T08:18:00;21.70;99.90
25320;DHT22;13256;49.012;8.610;2023-09-07T08:20:58;21.90;99.90
25320;DHT22;13256;49.012;8.610;2023-09-07T08:23:51;22.10;99.90
25320;DHT22;13256;49.012;8.610;2023-09-07T08:26:55;22.30;99.90
25320;DHT22;13256;49.012;8.610;2023-09-07T08:29:54;22.50;99.90
25320;DHT22;13256;49.012;8.610;2023-09-07T08:33:08;22.60;99.90
25320;DHT22;13256;49.012;8.610;2023-09-07T08:36:32;22.90;99.90
25320;DHT22;13256;49.012;8.610;2023-09-07T08:39:29;23.10;99.90
25320;DHT22;13256;49.012;8.610;2023-09-07T08:42:35;23.20;99.90
25320;DHT22;13256;49.012;8.610;2023-09-07T10:33:21;28.50;99.90
25320;DHT22;13256;49.012;8.610;2023-09-07T10:36:27;28.40;99.90
25320;DHT22;13256;49.012;8.610;2023-09-07T11:00:21;28.70;99.90
25320;DHT22;13256;49.012;8.610;2023-09-07T11:03:18;28.80;99.90
25320;DHT22;13256;49.012;8.610;2023-09-07T11:06:38;28.90;99.80
25320;DHT22;13256;49.012;8.610;2023-09-07T11:09:54;29.20;99.60
25320;DHT22;13256;49.012;8.610;2023-09-07T11:12:26;29.10;99.90
25320;DHT22;13256;49.012;8.610;2023-09-07T11:15:19;29.10;99.90
25320;DHT22;13256;49.012;8.610;2023-09-07T11:18:10;29.10;99.60
25320;DHT22;13256;49.012;8.610;2023-09-07T11:20:39;29.20;99.20
25320;DHT22;13256;49.012;8.610;2023-09-07T11:23:16;29.20;99.60
25320;DHT22;13256;49.012;8.610;2023-09-07T11:25:59;29.30;99.20
25320;DHT22;13256;49.012;8.610;2023-09-07T11:28:52;29.40;99.70
25320;DHT22;13256;49.012;8.610;2023-09-07T11:31:36;29.60;99.80
25320;DHT22;13256;49.012;8.610;2023-09-07T11:34:59;29.80;98.70
25320;DHT22;13256;49.012;8.610;2023-09-07T11:37:51;30.00;97.70
25320;DHT22;13256;49.012;8.610;2023-09-07T11:40:20;30.00;97.60
25320;DHT22;13256;49.012;8.610;2023-09-07T11:46:05;30.10;97.60
25320;DHT22;13256;49.012;8.610;2023-09-07T11:48:50;30.20;97.30
25320;DHT22;13256;49.012;8.610;2023-09-07T11:51:41;30.30;97.00
25320;DHT22;13256;49.012;8.610;2023-09-07T11:54:55;30.40;96.80
25320;DHT22;13256;49.012;8.610;2023-09-07T11:57:30;30.50;95.90
25320;DHT22;13256;49.012;8.610;2023-09-07T12:00:14;30.60;96.10
25320;DHT22;13256;49.012;8.610;2023-09-07T12:06:31;30.40;94.70
25320;DHT22;13256;49.012;8.610;2023-09-07T12:09:06;30.40;94.50
25320;DHT22;13256;49.012;8.610;2023-09-07T12:11:42;30.40;95.50
25320;DHT22;13256;49.012;8.610;2023-09-07T12:18:01;30.60;94.20
25320;DHT22;13256;49.012;8.610;2023-09-07T12:24:05;31.00;93.60
25320;DHT22;13256;49.012;8.610;2023-09-07T12:27:00;31.10;93.80
25320;DHT22;13256;49.012;8.610;2023-09-07T12:30:00;31.00;93.20
25320;DHT22;13256;49.012;8.610;2023-09-07T12:32:29;31.00;92.50
25320;DHT22;13256;49.012;8.610;2023-09-07T12:35:03;31.10;93.80
25320;DHT22;13256;49.012;8.610;2023-09-07T12:38:08;31.30;91.70
25320;DHT22;13256;49.012;8.610;2023-09-07T12:40:58;31.30;91.50
25320;DHT22;13256;49.012;8.610;2023-09-07T12:43:52;31.40;91.60
25320;DHT22;13256;49.012;8.610;2023-09-07T12:49:21;31.70;90.70
25320;DHT22;13256;49.012;8.610;2023-09-07T12:51:58;31.70;90.70
25320;DHT22;13256;49.012;8.610;2023-09-07T12:54:32;31.50;90.70
25320;DHT22;13256;49.012;8.610;2023-09-07T12:57:04;31.70;91.20
25320;DHT22;13256;49.012;8.610;2023-09-07T12:59:32;31.70;90.80
25320;DHT22;13256;49.012;8.610;2023-09-07T13:02:00;31.80;90.20
25320;DHT22;13256;49.012;8.610;2023-09-07T14:01:34;33.90;79.80
25320;DHT22;13256;49.012;8.610;2023-09-07T15:23:54;33.50;75.30
25320;DHT22;13256;49.012;8.610;2023-09-07T15:26:44;33.50;76.70
25320;DHT22;13256;49.012;8.610;2023-09-07T15:35:17;33.00;75.70
25320;DHT22;13256;49.012;8.610;2023-09-07T15:47:33;32.30;77.70
25320;DHT22;13256;49.012;8.610;2023-09-07T15:50:33;32.20;75.90
25320;DHT22;13256;49.012;8.610;2023-09-07T15:53:33;31.90;76.40
25320;DHT22;13256;49.012;8.610;2023-09-07T15:56:06;31.60;77.50
25320;DHT22;13256;49.012;8.610;2023-09-07T15:59:04;31.50;78.40
25320;DHT22;13256;49.012;8.610;2023-09-07T16:01:35;31.40;79.50
25320;DHT22;13256;49.012;8.610;2023-09-07T16:20:47;30.60;80.00
25320;DHT22;13256;49.012;8.610;2023-09-07T16:26:17;30.40;81.10
25320;DHT22;13256;49.012;8.610;2023-09-07T16:37:03;30.00;82.20
25320;DHT22;13256;49.012;8.610;2023-09-07T16:39:31;29.80;82.40
25320;DHT22;13256;49.012;8.610;2023-09-07T16:49:12;29.60;82.00
25320;DHT22;13256;49.012;8.610;2023-09-07T16:51:48;29.50;84.30
25320;DHT22;13256;49.012;8.610;2023-09-07T16:57:28;29.20;83.80
25320;DHT22;13256;49.012;8.610;2023-09-07T17:00:18;29.10;84.00
25320;DHT22;13256;49.012;8.610;2023-09-07T17:02:49;28.90;83.90
25320;DHT22;13256;49.012;8.610;2023-09-07T17:05:29;28.80;82.90
25320;DHT22;13256;49.012;8.610;2023-09-07T17:21:06;28.30;85.00
25320;DHT22;13256;49.012;8.610;2023-09-07T17:29:18;27.90;87.70
25320;DHT22;13256;49.012;8.610;2023-09-07T19:36:21;21.20;99.90
25320;DHT22;13256;49.012;8.610;2023-09-07T19:57:32;20.80;99.90
25320;DHT22;13256;49.012;8.610;2023-09-07T20:00:00;20.70;99.90
25320;DHT22;13256;49.012;8.610;2023-09-07T20:06:31;20.60;99.90
25320;DHT22;13256;49.012;8.610;2023-09-07T21:20:57;19.90;99.90
25320;DHT22;13256;49.012;8.610;2023-09-07T21:23:52;19.70;99.90
25320;DHT22;13256;49.012;8.610;2023-09-07T21:26:24;19.60;99.90
25320;DHT22;13256;49.012;8.610;2023-09-07T21:32:30;19.50;99.90
25320;DHT22;13256;49.012;8.610;2023-09-07T21:43:45;19.30;99.90
25320;DHT22;13256;49.012;8.610;2023-09-07T21:47:35;19.20;99.90
25320;DHT22;13256;49.012;8.610;2023-09-07T21:50:11;19.10;99.90
25320;DHT22;13256;49.012;8.610;2023-09-07T22:02:28;19.00;99.90
25320;DHT22;13256;49.012;8.610;2023-09-07T22:05:23;19.00;99.90
25320;DHT22;13256;49.012;8.610;2023-09-07T22:07:53;19.10;99.90
25320;DHT22;13256;49.012;8.610;2023-09-07T22:10:26;19.00;99.90
25320;DHT22;13256;49.012;8.610;2023-09-07T22:13:19;19.00;99.90
25320;DHT22;13256;49.012;8.610;2023-09-07T22:16:15;18.90;99.90
25320;DHT22;13256;49.012;8.610;2023-09-07T22:18:43;18.90;99.90
25320;DHT22;13256;49.012;8.610;2023-09-07T22:21:11;18.80;99.90
25320;DHT22;13256;49.012;8.610;2023-09-07T22:23:40;18.70;99.90
25320;DHT22;13256;49.012;8.610;2023-09-07T22:26:14;18.60;99.90
25320;DHT22;13256;49.012;8.610;2023-09-07T22:28:43;18.60;99.90
25320;DHT22;13256;49.012;8.610;2023-09-07T22:31:11;18.50;99.90
25320;DHT22;13256;49.012;8.610;2023-09-07T22:33:41;18.40;99.90
25320;DHT22;13256;49.012;8.610;2023-09-07T22:36:09;18.40;99.90
25320;DHT22;13256;49.012;8.610;2023-09-07T22:38:40;18.30;99.90
25320;DHT22;13256;49.012;8.610;2023-09-07T22:41:08;18.30;99.90
25320;DHT22;13256;49.012;8.610;2023-09-07T22:43:35;18.30;99.90
25320;DHT22;13256;49.012;8.610;2023-09-07T22:46:02;18.30;99.90
25320;DHT22;13256;49.012;8.610;2023-09-07T22:48:31;18.20;99.90
25320;DHT22;13256;49.012;8.610;2023-09-07T22:50:57;18.20;99.90
25320;DHT22;13256;49.012;8.610;2023-09-07T22:53:30;18.20;99.90
25320;DHT22;13256;49.012;8.610;2023-09-07T22:55:59;18.20;99.90
25320;DHT22;13256;49.012;8.610;2023-09-07T22:58:30;18.10;99.90
25320;DHT22;13256;49.012;8.610;2023-09-07T23:00:56;18.00;99.90
25320;DHT22;13256;49.012;8.610;2023-09-07T23:03:25;17.90;99.90
25320;DHT22;13256;49.012;8.610;2023-09-07T23:05:53;17.80;99.90
25320;DHT22;13256;49.012;8.610;2023-09-07T23:08:21;17.80;99.90
25320;DHT22;13256;49.012;8.610;2023-09-07T23:10:49;17.70;99.90
25320;DHT22;13256;49.012;8.610;2023-09-07T23:13:20;17.70;99.90
25320;DHT22;13256;49.012;8.610;2023-09-07T23:15:50;17.60;99.90
25320;DHT22;13256;49.012;8.610;2023-09-07T23:18:17;17.60;99.90
25320;DHT22;13256;49.012;8.610;2023-09-07T23:20:46;17.60;99.90
25320;DHT22;13256;49.012;8.610;2023-09-07T23:23:15;17.50;99.90
25320;DHT22;13256;49.012;8.610;2023-09-07T23:25:46;17.50;99.90
25320;DHT22;13256;49.012;8.610;2023-09-07T23:28:13;17.50;99.90
25320;DHT22;13256;49.012;8.610;2023-09-07T23:30:42;17.50;99.90
25320;DHT22;13256;49.012;8.610;2023-09-07T23:33:12;17.60;99.90
25320;DHT22;13256;49.012;8.610;2023-09-07T23:35:41;17.60;99.90
25320;DHT22;13256;49.012;8.610;2023-09-07T23:38:09;17.50;99.90
25320;DHT22;13256;49.012;8.610;2023-09-07T23:40:35;17.50;99.90
25320;DHT22;13256;49.012;8.610;2023-09-07T23:43:05;17.50;99.90
25320;DHT22;13256;49.012;8.610;2023-09-07T23:45:34;17.50;99.90
25320;DHT22;13256;49.012;8.610;2023-09-07T23:48:10;17.60;99.90
25320;DHT22;13256;49.012;8.610;2023-09-07T23:50:36;17.60;99.90
25320;DHT22;13256;49.012;8.610;2023-09-07T23:53:03;17.60;99.90
25320;DHT22;13256;49.012;8.610;2023-09-07T23:55:30;17.70;99.90
25320;DHT22;13256;49.012;8.610;2023-09-07T23:58:04;17.70;99.90
